createdAt,value
2017-10-11T00:03:16.906Z,15.3
2017-10-11T00:13:16.868Z,15.17
2017-10-11T00:23:16.947Z,15.13
2017-10-11T00:33:16.893Z,15.24
2017-10-11T00:43:16.854Z,15.33
2017-10-11T00:53:16.915Z,15.11
2017-10-11T01:03:16.879Z,15.12
2017-10-11T01:13:16.897Z,14.98
2017-10-11T01:23:16.903Z,15.02
2017-10-11T01:33:17.004Z,14.94
2017-10-11T01:43:16.928Z,14.9
2017-10-11T01:53:16.992Z,14.8
2017-10-11T02:03:16.971Z,14.65
2017-10-11T02:13:17.286Z,14.71
2017-10-11T02:23:16.986Z,14.67
2017-10-11T02:33:17.078Z,14.5
2017-10-11T02:43:17.024Z,14.13
2017-10-11T02:53:17.047Z,14.29
2017-10-11T03:03:17.050Z,14.42
2017-10-11T03:13:17.084Z,14.56
2017-10-11T03:23:17.062Z,14.67
2017-10-11T03:33:17.121Z,14.65
2017-10-11T03:43:17.081Z,14.9
2017-10-11T03:53:17.139Z,14.91
2017-10-11T04:03:17.137Z,14.91
2017-10-11T04:13:17.047Z,14.81
2017-10-11T04:23:17.129Z,14.74
2017-10-11T04:33:17.079Z,14.75
2017-10-11T04:43:17.146Z,14.8
2017-10-11T04:53:17.137Z,14.88
2017-10-11T05:03:17.311Z,14.69
2017-10-11T05:13:17.192Z,14.86
2017-10-11T05:23:17.206Z,14.71
2017-10-11T05:33:17.166Z,14.72
2017-10-11T05:43:17.226Z,14.69
2017-10-11T05:53:17.184Z,14.74
2017-10-11T06:03:17.265Z,14.78
2017-10-11T06:13:17.179Z,14.88
2017-10-11T06:23:17.188Z,15.03
2017-10-11T06:33:17.200Z,14.95
2017-10-11T06:43:17.212Z,14.91
2017-10-11T06:53:17.232Z,14.98
2017-10-11T07:03:17.285Z,15.03
2017-10-11T07:13:17.213Z,15.15
2017-10-11T07:23:17.244Z,15.43
2017-10-11T07:33:17.262Z,15.43
2017-10-11T07:43:17.305Z,15.48
2017-10-11T07:53:17.302Z,15.66
2017-10-11T08:03:17.279Z,15.75
2017-10-11T08:13:17.267Z,15.78
2017-10-11T08:23:17.315Z,15.88
2017-10-11T08:33:17.369Z,16.07
2017-10-11T08:43:17.333Z,16.3
2017-10-11T08:53:17.323Z,16.4
2017-10-11T09:03:17.343Z,16.35
2017-10-11T09:13:17.368Z,16.67
2017-10-11T09:23:17.381Z,16.95
2017-10-11T09:33:17.373Z,17.08
2017-10-11T09:43:17.386Z,17.13
2017-10-11T09:53:17.552Z,17.08
2017-10-11T10:13:17.515Z,16.67
2017-10-11T10:33:17.509Z,16.59
2017-10-11T10:43:17.490Z,16.7
2017-10-11T10:53:18.583Z,16.8
2017-10-11T11:03:29.886Z,17.07
2017-10-11T11:13:18.501Z,17.92
2017-10-11T11:23:17.519Z,18.19
2017-10-11T11:33:17.570Z,17.92
2017-10-11T11:43:17.508Z,17.82
2017-10-11T11:53:17.506Z,17.71
2017-10-11T12:03:17.480Z,17.32
2017-10-11T12:13:17.560Z,17.03
2017-10-11T12:23:17.534Z,16.88
2017-10-11T12:33:17.549Z,16.75
2017-10-11T12:43:17.561Z,17.63
2017-10-11T12:53:17.589Z,17.85
2017-10-11T13:03:17.626Z,18.04
2017-10-11T13:13:17.605Z,17.94
2017-10-11T13:23:17.618Z,17.87
2017-10-11T13:33:17.585Z,17.67
2017-10-11T13:43:17.626Z,17.63
2017-10-11T13:53:17.580Z,17.33
2017-10-11T14:03:17.579Z,17.13
2017-10-11T14:13:17.592Z,17.2
2017-10-11T14:23:17.707Z,16.93
2017-10-11T14:33:17.597Z,16.89
2017-10-11T14:43:17.640Z,16.67
2017-10-11T14:53:17.609Z,16.67
2017-10-11T15:03:17.612Z,16.65
2017-10-11T15:13:17.573Z,16.65
2017-10-11T15:23:17.622Z,16.34
2017-10-11T15:33:17.598Z,16.23
2017-10-11T15:43:17.628Z,16
2017-10-11T15:53:17.638Z,15.85
2017-10-11T16:03:17.663Z,15.89
2017-10-11T16:13:17.759Z,15.88
2017-10-11T16:23:17.711Z,15.76
2017-10-11T16:33:17.743Z,15.64
2017-10-11T16:43:17.729Z,15.67
2017-10-11T16:53:17.628Z,15.56
2017-10-11T17:03:17.689Z,15.54
2017-10-11T17:13:17.701Z,15.3
2017-10-11T17:23:17.734Z,15.24
2017-10-11T17:33:17.695Z,15.27
2017-10-11T17:43:17.747Z,15.21
2017-10-11T17:53:17.736Z,15.17
2017-10-11T18:03:17.731Z,15.27
2017-10-11T18:13:17.755Z,15.24
2017-10-11T18:23:17.737Z,15.3
2017-10-11T18:33:17.749Z,15.28
2017-10-11T18:43:17.754Z,15.27
2017-10-11T18:53:17.848Z,15.31
2017-10-11T19:03:17.877Z,15.17
2017-10-11T19:13:17.867Z,15.09
2017-10-11T19:23:17.786Z,15.12
2017-10-11T19:33:17.923Z,15.11
2017-10-11T19:43:17.921Z,15.12
2017-10-11T19:53:17.878Z,15.23
2017-10-11T20:03:17.991Z,15.43
2017-10-11T20:13:18.924Z,15.68
2017-10-11T20:23:17.863Z,15.7
2017-10-11T20:33:17.944Z,15.7
2017-10-11T20:43:18.012Z,15.74
2017-10-11T20:53:17.950Z,15.86
2017-10-11T21:03:18.973Z,15.64
2017-10-11T21:13:17.988Z,15.52
2017-10-11T21:23:17.921Z,15.39
2017-10-11T21:33:17.962Z,15.38
2017-10-11T21:43:17.931Z,15.3
2017-10-11T21:53:18.012Z,15.36
2017-10-11T22:03:17.979Z,15.27
2017-10-11T22:13:17.816Z,15.2
2017-10-11T22:23:17.821Z,14.98
2017-10-11T22:33:17.969Z,15.23
2017-10-11T22:43:17.931Z,15.36
2017-10-11T22:53:17.857Z,15.63
2017-10-11T23:03:17.838Z,15.72
2017-10-11T23:13:17.848Z,15.99
2017-10-11T23:23:17.816Z,15.97
2017-10-11T23:33:17.887Z,16.11
2017-10-11T23:43:17.833Z,16.16
2017-10-11T23:53:17.913Z,16.14
